Time;durP1;ratioP1;P1;durP2;ratioP2;P2;SDS_P1;SDS_P2;PMS_P1;PMS_P2;Temp;Humidity;BMP_temperature;BMP_pressure;BME280_temperature;BME280_humidity;BME280_pressure;Samples;Min_cycle;Max_cycle;Signal;HPM_P1;HPM_P2
2022/05/16 00:00:26;;;;;;;13.13;5.20;;;13.00;99.90;;;;;;5031545;28;20386;-65
2022/05/16 00:02:53;;;;;;;10.43;5.00;;;13.10;99.90;;;;;;5028244;28;20188;-66
2022/05/16 00:05:19;;;;;;;12.07;5.65;;;13.10;99.90;;;;;;5028584;28;20132;-64
2022/05/16 00:07:45;;;;;;;10.27;4.93;;;13.00;99.90;;;;;;5031205;28;20045;-65
2022/05/16 00:10:14;;;;;;;10.63;4.78;;;13.10;99.90;;;;;;5030331;28;20513;-64
2022/05/16 00:12:40;;;;;;;9.63;5.05;;;13.00;99.90;;;;;;5031805;28;20144;-65
2022/05/16 00:15:09;;;;;;;19.35;5.13;;;13.00;99.90;;;;;;5030271;28;20060;-66
2022/05/16 00:17:35;;;;;;;9.90;4.78;;;13.00;99.90;;;;;;5028281;28;20398;-65
2022/05/16 00:20:01;;;;;;;11.85;5.60;;;13.00;99.90;;;;;;5030934;28;20060;-65
2022/05/16 00:22:27;;;;;;;8.13;5.00;;;13.00;99.90;;;;;;5031549;28;20204;-64
2022/05/16 00:24:53;;;;;;;11.55;5.55;;;13.00;99.90;;;;;;5030210;28;20494;-65
2022/05/16 00:27:19;;;;;;;11.48;4.90;;;12.90;99.90;;;;;;5030574;28;20053;-64
2022/05/16 00:29:45;;;;;;;11.02;4.97;;;12.90;99.90;;;;;;5029877;28;20068;-65
2022/05/16 00:32:10;;;;;;;8.90;4.90;;;12.90;99.90;;;;;;5029843;28;20072;-64
2022/05/16 00:34:37;;;;;;;9.10;5.07;;;12.90;99.90;;;;;;5030583;28;20054;-64
2022/05/16 00:37:03;;;;;;;9.38;5.57;;;12.90;99.90;;;;;;5029204;28;20049;-64
2022/05/16 00:39:28;;;;;;;10.07;5.00;;;12.90;99.90;;;;;;5029035;28;20525;-65
2022/05/16 00:41:54;;;;;;;8.75;4.75;;;12.80;99.90;;;;;;5030885;28;20167;-65
2022/05/16 00:44:21;;;;;;;8.88;4.85;;;12.80;99.90;;;;;;5029230;28;20639;-63
2022/05/16 00:46:48;;;;;;;10.68;4.72;;;12.80;99.90;;;;;;5029602;28;20068;-66
2022/05/16 00:49:22;;;;;;;10.00;5.60;;;12.80;99.90;;;;;;5031081;28;20060;-64
2022/05/16 00:52:08;;;;;;;9.45;5.22;;;12.80;99.90;;;;;;5030388;28;20136;-65
2022/05/16 00:54:56;;;;;;;8.82;5.50;;;12.80;99.90;;;;;;5031303;28;20637;-65
2022/05/16 00:57:25;;;;;;;11.15;4.93;;;12.80;99.90;;;;;;5028256;28;20358;-65
2022/05/16 01:00:12;;;;;;;9.82;5.10;;;12.70;99.90;;;;;;5032724;28;20128;-66
2022/05/16 01:05:27;;;;;;;8.30;5.68;;;12.70;99.90;;;;;;5045224;28;20402;-65
2022/05/16 01:08:01;;;;;;;9.30;4.35;;;12.70;99.90;;;;;;5028606;28;20054;-65
2022/05/16 01:10:27;;;;;;;6.68;4.50;;;12.70;99.90;;;;;;5029207;28;20406;-65
2022/05/16 01:12:53;;;;;;;10.80;4.95;;;12.70;99.90;;;;;;5030171;28;20064;-65
2022/05/16 01:15:36;;;;;;;11.43;5.20;;;12.70;99.90;;;;;;5031733;28;20069;-64
2022/05/16 01:18:04;;;;;;;11.80;4.72;;;12.70;99.90;;;;;;5018467;28;20482;-65
2022/05/16 01:20:56;;;;;;;8.43;4.82;;;12.70;99.90;;;;;;5028634;28;20053;-64
2022/05/16 01:23:24;;;;;;;9.70;4.47;;;12.70;99.90;;;;;;5031177;28;20046;-64
2022/05/16 01:25:52;;;;;;;9.90;4.80;;;12.70;99.90;;;;;;5035351;28;20302;-65
2022/05/16 01:28:21;;;;;;;8.43;4.60;;;12.70;99.90;;;;;;5035236;28;20386;-64
2022/05/16 01:30:49;;;;;;;7.97;4.82;;;12.70;99.90;;;;;;5033510;28;20098;-64
2022/05/16 01:33:17;;;;;;;10.82;4.75;;;12.70;99.90;;;;;;5032378;28;20045;-64
2022/05/16 01:35:43;;;;;;;7.80;4.88;;;12.70;99.90;;;;;;5033969;28;20057;-64
2022/05/16 01:38:18;;;;;;;9.50;4.20;;;12.70;99.90;;;;;;5032085;28;20056;-65
2022/05/16 01:41:02;;;;;;;9.02;5.20;;;12.70;99.90;;;;;;5035106;28;20112;-64
2022/05/16 01:43:42;;;;;;;6.35;4.20;;;12.70;99.90;;;;;;5035340;28;20049;-63
2022/05/16 01:46:10;;;;;;;6.07;4.10;;;12.70;99.90;;;;;;5031095;28;20045;-65
2022/05/16 01:48:36;;;;;;;11.52;4.90;;;12.70;99.90;;;;;;5034139;28;20065;-64
2022/05/16 01:51:04;;;;;;;7.10;4.03;;;12.70;99.90;;;;;;5033937;28;20049;-65
2022/05/16 01:53:31;;;;;;;8.88;4.60;;;12.60;99.90;;;;;;5033313;28;20445;-64
2022/05/16 01:55:56;;;;;;;7.38;4.18;;;12.60;99.90;;;;;;5034797;28;20525;-65
2022/05/16 01:58:22;;;;;;;6.60;3.97;;;12.60;99.90;;;;;;5033441;28;20050;-65
2022/05/16 02:00:48;;;;;;;9.23;4.40;;;12.60;99.90;;;;;;5030700;28;20085;-64
2022/05/16 02:03:14;;;;;;;10.18;4.50;;;12.60;99.90;;;;;;5030617;28;20045;-64
2022/05/16 02:05:42;;;;;;;13.23;4.50;;;12.60;99.90;;;;;;5034629;28;20509;-63
2022/05/16 02:08:08;;;;;;;8.60;4.38;;;12.60;99.90;;;;;;5029597;28;20569;-65
2022/05/16 02:10:35;;;;;;;9.82;4.05;;;12.50;99.90;;;;;;5032825;28;20054;-64
2022/05/16 02:13:03;;;;;;;6.13;3.85;;;12.50;99.90;;;;;;5033239;28;20049;-65
2022/05/16 02:15:31;;;;;;;12.43;4.07;;;12.50;99.90;;;;;;5025728;28;20096;-64
2022/05/16 02:17:56;;;;;;;10.65;5.03;;;12.50;99.90;;;;;;5033229;28;20057;-65
2022/05/16 02:20:22;;;;;;;6.80;3.92;;;12.50;99.90;;;;;;5033041;28;20067;-64
2022/05/16 02:25:36;;;;;;;7.35;4.10;;;12.50;99.90;;;;;;5031658;28;20049;-65
2022/05/16 02:28:03;;;;;;;8.30;3.88;;;12.40;99.90;;;;;;5024878;28;20502;-65
2022/05/16 02:30:29;;;;;;;7.65;3.95;;;12.40;99.90;;;;;;5031686;28;20136;-64
2022/05/16 02:32:55;;;;;;;6.57;3.92;;;12.50;99.90;;;;;;5032241;28;20132;-65
2022/05/16 02:35:21;;;;;;;6.45;3.38;;;12.40;99.90;;;;;;5030892;28;20049;-64
2022/05/16 02:37:47;;;;;;;9.82;3.72;;;12.50;99.90;;;;;;5030003;28;20057;-65
2022/05/16 02:40:13;;;;;;;7.18;3.72;;;12.50;99.90;;;;;;5032153;28;20054;-64
2022/05/16 02:42:38;;;;;;;9.90;3.88;;;12.50;99.90;;;;;;5030383;28;20664;-65
2022/05/16 02:45:05;;;;;;;6.28;3.58;;;12.50;99.90;;;;;;5031438;28;20076;-66
2022/05/16 02:47:30;;;;;;;9.98;3.83;;;12.50;99.90;;;;;;5033497;28;20111;-65
2022/05/16 02:49:56;;;;;;;5.20;3.60;;;12.50;99.90;;;;;;5033622;28;20057;-64
2022/05/16 02:52:22;;;;;;;7.13;3.50;;;12.50;99.90;;;;;;5031869;28;20057;-65
2022/05/16 02:54:47;;;;;;;5.97;3.38;;;12.50;99.90;;;;;;5033269;28;20129;-64
2022/05/16 02:57:13;;;;;;;5.88;3.65;;;12.50;99.90;;;;;;5030059;28;20053;-65
2022/05/16 02:59:39;;;;;;;8.00;3.38;;;12.50;99.90;;;;;;5032690;28;20049;-63
2022/05/16 03:02:07;;;;;;;7.43;3.88;;;12.50;99.90;;;;;;5027484;28;20049;-65
2022/05/16 03:04:34;;;;;;;7.97;3.42;;;12.50;99.90;;;;;;5030406;28;20062;-65
2022/05/16 03:07:00;;;;;;;7.50;3.53;;;12.50;99.90;;;;;;5031423;28;20100;-65
2022/05/16 03:09:27;;;;;;;7.88;3.22;;;12.50;99.90;;;;;;5030250;28;20130;-65
2022/05/16 03:11:53;;;;;;;6.03;3.42;;;12.50;99.90;;;;;;5032018;28;20056;-65
2022/05/16 03:14:20;;;;;;;5.97;3.30;;;12.40;99.90;;;;;;5033120;28;20041;-64
2022/05/16 03:16:46;;;;;;;7.65;3.47;;;12.40;99.90;;;;;;5031284;28;20061;-65
2022/05/16 03:19:12;;;;;;;9.15;3.88;;;12.40;99.90;;;;;;5033080;28;20417;-64
2022/05/16 03:21:38;;;;;;;4.97;2.92;;;12.40;99.90;;;;;;5033033;28;20486;-65
2022/05/16 03:24:05;;;;;;;6.93;3.30;;;12.40;99.90;;;;;;5032271;28;20071;-64
2022/05/16 03:26:31;;;;;;;6.75;3.45;;;12.40;99.90;;;;;;5033067;28;20081;-64
2022/05/16 03:28:57;;;;;;;5.68;3.25;;;12.40;99.90;;;;;;5031721;28;20055;-64
2022/05/16 03:31:22;;;;;;;8.75;3.30;;;12.40;99.90;;;;;;5030666;28;20072;-64
2022/05/16 03:33:48;;;;;;;6.60;3.20;;;12.40;99.90;;;;;;5033200;28;20057;-64
2022/05/16 03:36:14;;;;;;;7.32;3.03;;;12.40;99.90;;;;;;5031112;28;20046;-64
2022/05/16 03:41:23;;;;;;;7.15;4.10;;;12.40;99.90;;;;;;5028140;28;20053;-66
2022/05/16 03:43:50;;;;;;;8.45;3.13;;;12.40;99.90;;;;;;5032456;28;20050;-65
2022/05/16 03:46:16;;;;;;;7.22;3.45;;;12.30;99.90;;;;;;5029361;28;20048;-64
2022/05/16 03:48:42;;;;;;;6.45;3.20;;;12.30;99.90;;;;;;5033425;28;20057;-66
2022/05/16 03:51:10;;;;;;;7.05;3.30;;;12.40;99.90;;;;;;5028596;28;20053;-65
2022/05/16 03:53:36;;;;;;;9.60;3.15;;;12.30;99.90;;;;;;5030767;28;20151;-65
2022/05/16 03:56:03;;;;;;;6.88;3.05;;;12.30;99.90;;;;;;5031321;28;20101;-65
2022/05/16 03:58:28;;;;;;;5.60;3.15;;;12.30;99.90;;;;;;5031701;28;20041;-66
2022/05/16 04:00:54;;;;;;;9.95;3.67;;;12.40;99.90;;;;;;5029257;28;20053;-63
2022/05/16 04:03:20;;;;;;;9.07;3.10;;;12.40;99.90;;;;;;5031172;28;20052;-66
2022/05/16 04:05:45;;;;;;;7.82;3.50;;;12.40;99.90;;;;;;5025815;28;20059;-65
2022/05/16 04:08:11;;;;;;;6.78;3.08;;;12.40;99.90;;;;;;5032103;28;20065;-65
2022/05/16 04:10:37;;;;;;;6.47;3.20;;;12.40;99.90;;;;;;5012044;28;20084;-64
2022/05/16 04:13:02;;;;;;;6.75;3.10;;;12.40;99.90;;;;;;5029996;28;20049;-63
2022/05/16 04:15:28;;;;;;;7.70;2.80;;;12.40;99.90;;;;;;5032690;28;20463;-64
2022/05/16 04:17:54;;;;;;;8.00;3.10;;;12.40;99.90;;;;;;5027211;28;20057;-66
2022/05/16 04:20:20;;;;;;;5.97;3.03;;;12.50;99.90;;;;;;5030625;28;20042;-65
2022/05/16 04:22:47;;;;;;;5.80;3.03;;;12.50;99.90;;;;;;5031693;28;20409;-65
2022/05/16 04:25:15;;;;;;;7.97;3.15;;;12.50;99.90;;;;;;5030966;28;20045;-66
2022/05/16 04:27:41;;;;;;;7.95;3.00;;;12.50;99.90;;;;;;5029188;28;20057;-64
2022/05/16 04:30:07;;;;;;;5.90;2.90;;;12.50;99.90;;;;;;5030605;28;20064;-66
2022/05/16 04:32:34;;;;;;;7.13;2.72;;;12.60;99.90;;;;;;5028297;28;20065;-64
2022/05/16 04:35:00;;;;;;;6.25;3.25;;;12.60;99.90;;;;;;5032759;28;20053;-64
2022/05/16 04:37:31;;;;;;;5.15;3.00;;;12.60;99.90;;;;;;5028577;28;20053;-64
2022/05/16 04:40:00;;;;;;;6.28;2.90;;;12.60;99.90;;;;;;5031591;28;20124;-64
2022/05/16 04:42:42;;;;;;;9.25;3.50;;;12.60;99.90;;;;;;5028868;28;20041;-65
2022/05/16 04:45:18;;;;;;;7.93;3.17;;;12.60;99.90;;;;;;5030874;28;20100;-64
2022/05/16 04:47:47;;;;;;;7.72;3.25;;;12.60;99.90;;;;;;5030968;28;20088;-64
2022/05/16 04:50:16;;;;;;;6.97;2.80;;;12.60;99.90;;;;;;5030194;28;20049;-64
2022/05/16 04:52:42;;;;;;;6.80;3.00;;;12.60;99.90;;;;;;5028354;28;20057;-64
2022/05/16 04:55:08;;;;;;;4.65;2.90;;;12.60;99.90;;;;;;5028905;28;20065;-64
2022/05/16 04:57:34;;;;;;;6.40;3.13;;;12.60;99.90;;;;;;5033532;28;20057;-64
2022/05/16 05:00:00;;;;;;;7.07;3.13;;;12.60;99.90;;;;;;5034262;28;20106;-65
2022/05/16 05:02:26;;;;;;;8.65;3.33;;;12.60;99.90;;;;;;5030793;28;20050;-65
2022/05/16 05:04:52;;;;;;;5.43;3.13;;;12.70;99.90;;;;;;5031252;28;20063;-63
2022/05/16 05:07:17;;;;;;;5.35;3.30;;;12.70;99.90;;;;;;5033740;28;20049;-65
2022/05/16 05:15:14;;;;;;;8.07;3.00;;;12.90;99.90;;;;;;5032720;28;20057;-63
2022/05/16 05:17:41;;;;;;;11.57;3.35;;;13.00;99.90;;;;;;5032330;28;20091;-64
2022/05/16 05:20:13;;;;;;;8.35;3.38;;;13.20;99.90;;;;;;5029516;28;20049;-65
2022/05/16 05:22:49;;;;;;;6.50;3.65;;;13.30;99.90;;;;;;5029855;28;20060;-65
2022/05/16 05:25:17;;;;;;;6.18;3.33;;;13.40;99.90;;;;;;5035119;28;20041;-66
2022/05/16 05:27:47;;;;;;;6.95;3.25;;;13.50;99.90;;;;;;5033629;28;20512;-64
2022/05/16 05:30:24;;;;;;;8.38;3.53;;;13.50;99.90;;;;;;5032620;28;20049;-64
2022/05/16 05:32:51;;;;;;;7.63;3.40;;;14.00;99.90;;;;;;5029266;28;20128;-64
2022/05/16 05:35:17;;;;;;;7.22;2.90;;;15.00;99.90;;;;;;5030432;28;20172;-64
2022/05/16 05:37:43;;;;;;;8.18;3.47;;;16.10;99.90;;;;;;5031840;28;20056;-65
2022/05/16 05:40:10;;;;;;;9.85;3.67;;;16.40;99.90;;;;;;5032252;28;20458;-64
2022/05/16 05:42:36;;;;;;;5.60;3.20;;;16.30;99.90;;;;;;5035287;28;20061;-65
2022/05/16 05:45:03;;;;;;;5.10;3.20;;;17.00;99.90;;;;;;5032185;28;20068;-65
2022/05/16 05:47:28;;;;;;;10.73;4.18;;;17.60;99.90;;;;;;5033833;28;20057;-63
2022/05/16 05:49:54;;;;;;;6.97;3.22;;;18.30;99.90;;;;;;5034183;28;20488;-65
2022/05/16 05:52:20;;;;;;;8.10;3.53;;;18.80;99.90;;;;;;5031373;28;20049;-65
2022/05/16 05:54:48;;;;;;;5.93;3.33;;;18.70;99.90;;;;;;5029582;28;20383;-64
2022/05/16 05:57:16;;;;;;;6.82;3.13;;;18.40;99.90;;;;;;5030111;28;20049;-66
2022/05/16 05:59:43;;;;;;;4.55;3.05;;;17.80;99.90;;;;;;5031959;28;20135;-65
2022/05/16 06:02:10;;;;;;;4.72;3.05;;;17.50;99.90;;;;;;5032800;28;20094;-65
2022/05/16 06:04:36;;;;;;;7.55;3.10;;;17.30;99.90;;;;;;5032827;28;20049;-64
2022/05/16 06:07:03;;;;;;;6.05;3.28;;;17.30;99.90;;;;;;5035260;28;20188;-66
2022/05/16 06:09:29;;;;;;;9.07;3.33;;;17.20;99.90;;;;;;5032127;28;20055;-65
2022/05/16 06:11:56;;;;;;;7.75;3.20;;;17.40;99.90;;;;;;5034880;28;20485;-64
2022/05/16 06:14:21;;;;;;;5.60;3.00;;;17.40;99.90;;;;;;5032190;28;20124;-64
2022/05/16 06:16:47;;;;;;;5.07;2.88;;;17.20;99.90;;;;;;5034707;28;20141;-64
2022/05/16 06:19:12;;;;;;;6.35;3.15;;;17.40;99.90;;;;;;5033715;28;20045;-65
2022/05/16 06:21:39;;;;;;;6.80;3.30;;;17.70;99.90;;;;;;5034108;28;20053;-64
2022/05/16 06:25:31;;;;;;;6.32;3.22;;;17.70;99.90;;;;;;5033342;28;20050;-65
2022/05/16 06:26:51;;;;;;;9.40;3.40;;;17.40;99.90;;;;;;5033460;28;20061;-65
2022/05/16 06:29:16;;;;;;;8.43;3.38;;;17.10;99.90;;;;;;5031441;28;20424;-64
2022/05/16 06:31:42;;;;;;;8.50;3.20;;;16.90;99.90;;;;;;5032623;28;20412;-64
2022/05/16 06:34:08;;;;;;;7.43;3.10;;;16.80;99.90;;;;;;5033600;28;20108;-65
2022/05/16 06:36:33;;;;;;;7.30;3.47;;;16.80;99.90;;;;;;5033657;28;20046;-65
2022/05/16 06:38:59;;;;;;;6.18;3.42;;;16.90;99.90;;;;;;5028923;28;20054;-64
2022/05/16 06:41:24;;;;;;;9.43;3.13;;;16.90;99.90;;;;;;5033511;28;20414;-64
2022/05/16 06:43:50;;;;;;;4.97;3.10;;;17.00;99.90;;;;;;5033529;28;20371;-65
2022/05/16 06:46:15;;;;;;;7.32;3.40;;;17.10;99.90;;;;;;5031818;28;20103;-65
2022/05/16 06:48:41;;;;;;;6.25;2.90;;;17.20;99.90;;;;;;5033588;28;20053;-64
2022/05/16 06:51:07;;;;;;;5.90;2.83;;;17.30;99.90;;;;;;5032660;28;20045;-65
2022/05/16 06:53:33;;;;;;;5.22;3.03;;;17.40;99.90;;;;;;5033568;28;20577;-64
2022/05/16 06:56:00;;;;;;;8.88;3.75;;;17.50;99.90;;;;;;5034136;28;20059;-61
2022/05/16 06:58:26;;;;;;;7.47;3.20;;;17.70;99.90;;;;;;5034492;28;20057;-63
2022/05/16 07:00:52;;;;;;;7.68;3.28;;;17.80;99.90;;;;;;5031037;28;20072;-66
2022/05/16 07:03:18;;;;;;;7.43;3.42;;;17.90;99.90;;;;;;5031388;28;20073;-65
2022/05/16 07:05:46;;;;;;;6.05;3.30;;;18.40;99.90;;;;;;5034642;28;20064;-65
2022/05/16 07:08:11;;;;;;;8.20;3.53;;;18.00;99.90;;;;;;5034529;28;20096;-66
2022/05/16 07:10:37;;;;;;;4.43;2.78;;;18.20;99.90;;;;;;5034190;28;20085;-65
2022/05/16 07:13:03;;;;;;;6.43;2.85;;;18.30;99.90;;;;;;5032603;28;20068;-66
2022/05/16 07:15:28;;;;;;;5.30;2.90;;;18.50;99.90;;;;;;5033067;28;20042;-65
2022/05/16 07:17:54;;;;;;;7.22;3.30;;;18.60;99.90;;;;;;5032891;28;20061;-65
2022/05/16 07:20:20;;;;;;;7.20;2.95;;;18.90;99.90;;;;;;5032601;28;20122;-66
2022/05/16 07:22:48;;;;;;;6.72;2.97;;;19.00;99.90;;;;;;5032594;28;20052;-66
2022/05/16 07:25:16;;;;;;;8.32;3.20;;;19.20;99.90;;;;;;5034114;28;20416;-65
2022/05/16 07:27:59;;;;;;;6.78;2.60;;;19.30;99.90;;;;;;5032614;28;20174;-64
2022/05/16 07:30:33;;;;;;;6.53;2.88;;;19.40;99.90;;;;;;5032317;28;20123;-66
2022/05/16 07:33:00;;;;;;;9.25;2.75;;;19.60;99.90;;;;;;5032918;28;20493;-64
2022/05/16 07:35:30;;;;;;;7.60;2.85;;;19.80;99.90;;;;;;5033680;28;20049;-67
2022/05/16 07:37:56;;;;;;;5.50;2.80;;;19.90;99.70;;;;;;5032552;28;20140;-62
2022/05/16 07:40:34;;;;;;;7.53;2.75;;;20.00;99.90;;;;;;5032099;28;20068;-63
2022/05/16 07:43:00;;;;;;;6.55;3.05;;;20.10;94.00;;;;;;5033125;28;20065;-63
2022/05/16 07:45:26;;;;;;;6.03;2.58;;;20.10;99.00;;;;;;5032240;28;20131;-63
2022/05/16 07:47:52;;;;;;;8.63;2.80;;;20.20;99.70;;;;;;5030299;28;20126;-64
2022/05/16 07:50:18;;;;;;;5.78;2.80;;;20.40;98.50;;;;;;5030969;28;20164;-63
2022/05/16 07:52:48;;;;;;;4.40;2.95;;;20.50;97.10;;;;;;5031484;28;20392;-62
2022/05/16 07:55:17;;;;;;;4.90;2.63;;;20.60;95.80;;;;;;5032683;28;20045;-63
2022/05/16 07:57:43;;;;;;;10.23;2.38;;;20.70;94.30;;;;;;5031399;28;20371;-63
2022/05/16 08:00:10;;;;;;;7.30;2.55;;;20.90;94.10;;;;;;5032625;28;20053;-65
2022/05/16 08:02:35;;;;;;;6.38;2.80;;;21.00;92.90;;;;;;5030728;28;20129;-63
2022/05/16 08:05:01;;;;;;;5.95;2.95;;;21.10;91.10;;;;;;5031846;28;20124;-63
2022/05/16 08:07:27;;;;;;;6.80;2.55;;;21.10;89.40;;;;;;5031273;28;20525;-64
2022/05/16 08:12:37;;;;;;;5.68;2.55;;;21.30;89.40;;;;;;5034081;28;20128;-65
2022/05/16 08:15:05;;;;;;;6.85;2.75;;;21.30;85.80;;;;;;5031264;28;20056;-65
2022/05/16 08:17:31;;;;;;;7.13;2.70;;;21.40;84.60;;;;;;5031094;28;20057;-64
2022/05/16 08:19:57;;;;;;;6.00;2.70;;;21.50;84.80;;;;;;5031845;28;20064;-66
2022/05/16 08:22:30;;;;;;;6.85;2.85;;;21.70;80.90;;;;;;5032989;28;20076;-65
2022/05/16 08:24:58;;;;;;;4.32;3.00;;;21.80;82.80;;;;;;5025640;28;20065;-66
2022/05/16 08:27:53;;;;;;;7.68;2.75;;;21.80;83.40;;;;;;5030300;28;20049;-66
2022/05/16 08:30:20;;;;;;;5.72;2.90;;;21.80;81.30;;;;;;5038008;28;20060;-64
2022/05/16 08:32:48;;;;;;;7.18;2.70;;;21.80;81.40;;;;;;5030114;28;20061;-63
2022/05/16 08:35:14;;;;;;;4.60;2.72;;;21.70;77.70;;;;;;5029708;28;20414;-64
2022/05/16 08:40:37;;;;;;;7.28;2.55;;;21.80;82.00;;;;;;5029760;28;20123;-64
2022/05/16 08:43:12;;;;;;;4.93;2.53;;;22.00;90.60;;;;;;5030750;28;20128;-64
2022/05/16 08:45:40;;;;;;;4.60;2.50;;;22.20;85.90;;;;;;5031606;28;20133;-64
2022/05/16 08:48:27;;;;;;;6.40;2.90;;;22.40;79.20;;;;;;5031277;28;20510;-67
2022/05/16 08:50:56;;;;;;;6.95;3.00;;;22.50;74.90;;;;;;5029938;28;20474;-65
2022/05/16 08:53:32;;;;;;;4.50;2.50;;;22.60;73.00;;;;;;5032314;28;20563;-65
2022/05/16 08:56:05;;;;;;;6.60;2.80;;;22.80;70.70;;;;;;5032396;28;20093;-64
2022/05/16 08:58:51;;;;;;;7.10;2.83;;;22.90;70.20;;;;;;5032774;28;20356;-64
2022/05/16 09:01:26;;;;;;;5.35;2.42;;;23.00;71.30;;;;;;5030580;28;20053;-65
2022/05/16 09:03:56;;;;;;;6.57;2.60;;;23.00;72.10;;;;;;5029754;28;20355;-65
2022/05/16 09:06:33;;;;;;;7.18;2.40;;;23.00;72.10;;;;;;5030144;28;20706;-67
2022/05/16 09:09:12;;;;;;;9.75;2.50;;;23.10;70.80;;;;;;5038090;28;20121;-65
2022/05/16 09:12:09;;;;;;;7.32;2.70;;;23.20;69.10;;;;;;5029692;28;20057;-65
2022/05/16 09:14:58;;;;;;;5.63;2.58;;;23.30;70.30;;;;;;5029885;28;20194;-65
2022/05/16 09:17:51;;;;;;;7.68;2.78;;;23.50;70.00;;;;;;5031513;28;20049;-64
2022/05/16 09:20:58;;;;;;;7.20;2.65;;;23.60;66.30;;;;;;5026479;28;20053;-64
2022/05/16 09:24:01;;;;;;;7.18;2.45;;;23.70;64.60;;;;;;5031777;28;20057;-66
2022/05/16 09:26:54;;;;;;;7.90;2.50;;;23.90;68.80;;;;;;5032188;28;20119;-64
2022/05/16 09:29:31;;;;;;;4.97;2.60;;;23.90;66.30;;;;;;5031600;28;20140;-65
2022/05/16 09:32:11;;;;;;;6.05;2.45;;;24.10;65.40;;;;;;5030938;28;20402;-66
2022/05/16 09:34:37;;;;;;;7.15;2.67;;;24.30;65.80;;;;;;5030727;28;20045;-64
2022/05/16 09:37:03;;;;;;;10.38;3.30;;;24.50;66.10;;;;;;5030299;28;20145;-63
2022/05/16 09:39:31;;;;;;;6.75;2.70;;;24.60;65.40;;;;;;5029103;28;20390;-65
2022/05/16 09:42:22;;;;;;;7.47;3.05;;;24.70;64.90;;;;;;5032113;28;20053;-65
2022/05/16 09:44:59;;;;;;;7.35;2.97;;;24.80;63.50;;;;;;5035115;28;20401;-64
2022/05/16 09:47:28;;;;;;;9.15;2.90;;;24.90;62.10;;;;;;5032543;28;20060;-64
2022/05/16 09:50:02;;;;;;;7.88;3.00;;;25.00;62.50;;;;;;5034749;28;20442;-64
2022/05/16 09:52:46;;;;;;;9.32;3.67;;;25.00;61.60;;;;;;5032587;28;20132;-65
2022/05/16 09:55:33;;;;;;;8.48;2.90;;;25.20;62.40;;;;;;5034513;28;20125;-65
2022/05/16 09:58:13;;;;;;;6.65;2.72;;;25.30;60.20;;;;;;5033919;28;20057;-66
2022/05/16 10:00:45;;;;;;;6.68;3.10;;;25.50;61.60;;;;;;5032214;28;20371;-65
2022/05/16 10:03:44;;;;;;;7.40;3.15;;;25.50;60.50;;;;;;5031144;28;20154;-66
2022/05/16 10:06:30;;;;;;;8.70;2.90;;;25.50;59.80;;;;;;5030877;28;20054;-66
2022/05/16 10:09:06;;;;;;;5.30;2.88;;;25.60;59.80;;;;;;5031538;28;20409;-64
2022/05/16 10:11:32;;;;;;;7.00;3.00;;;25.60;59.90;;;;;;5033717;28;20521;-64
2022/05/16 10:13:59;;;;;;;6.07;3.10;;;25.60;60.00;;;;;;5049644;28;20565;-64
2022/05/16 10:16:28;;;;;;;6.82;2.80;;;25.50;59.10;;;;;;5032220;28;20124;-64
2022/05/16 10:18:58;;;;;;;10.05;2.47;;;25.50;59.70;;;;;;5034804;28;20875;-64
2022/05/16 10:21:29;;;;;;;6.88;2.78;;;25.60;59.90;;;;;;5032509;28;20045;-64
2022/05/16 10:23:55;;;;;;;7.03;3.03;;;25.80;59.50;;;;;;5033601;28;20049;-64
2022/05/16 10:26:25;;;;;;;8.13;3.05;;;26.00;59.10;;;;;;5030211;28;20045;-64
2022/05/16 10:29:08;;;;;;;6.18;2.88;;;26.20;58.50;;;;;;5034926;28;20549;-65
2022/05/16 10:34:46;;;;;;;7.72;3.10;;;26.50;57.10;;;;;;5032430;28;20045;-65
2022/05/16 10:37:13;;;;;;;7.07;3.13;;;26.60;56.50;;;;;;5029239;28;20105;-65
2022/05/16 10:39:45;;;;;;;6.45;2.70;;;26.50;56.80;;;;;;5032375;28;20540;-64
2022/05/16 10:42:30;;;;;;;6.20;2.90;;;26.40;57.00;;;;;;5034845;28;20356;-64
2022/05/16 10:45:01;;;;;;;5.53;2.60;;;26.40;58.00;;;;;;5033556;28;20054;-64
2022/05/16 10:47:50;;;;;;;8.20;3.22;;;26.40;58.20;;;;;;5032703;28;20076;-64
2022/05/16 10:50:30;;;;;;;7.13;2.90;;;26.30;56.90;;;;;;5042512;28;20076;-64
2022/05/16 10:53:10;;;;;;;8.77;2.97;;;26.30;57.90;;;;;;5030994;28;20049;-64
2022/05/16 10:55:54;;;;;;;5.30;2.63;;;26.20;58.00;;;;;;5033617;28;20052;-65
2022/05/16 10:58:39;;;;;;;5.10;2.75;;;26.00;57.10;;;;;;5033278;28;20128;-65
2022/05/16 11:01:11;;;;;;;8.13;2.90;;;25.80;57.80;;;;;;5033052;28;20065;-66
2022/05/16 11:03:53;;;;;;;8.95;3.53;;;25.60;58.30;;;;;;5032839;28;20057;-63
2022/05/16 11:06:55;;;;;;;5.18;2.90;;;25.50;58.90;;;;;;5031203;28;20077;-65
2022/05/16 11:09:42;;;;;;;7.20;3.58;;;25.20;59.20;;;;;;5032355;28;20050;-65
2022/05/16 11:12:29;;;;;;;7.18;3.25;;;25.00;61.00;;;;;;5032887;28;20089;-63
2022/05/16 11:15:21;;;;;;;6.68;3.50;;;24.80;62.70;;;;;;5032054;28;20405;-64
2022/05/16 11:18:08;;;;;;;10.27;3.50;;;24.60;64.30;;;;;;5031720;28;20056;-65
2022/05/16 11:20:44;;;;;;;7.47;3.70;;;24.50;65.60;;;;;;5014928;28;20058;-65
2022/05/16 11:23:34;;;;;;;9.88;3.35;;;24.40;70.00;;;;;;5031633;28;20516;-64
2022/05/16 11:26:19;;;;;;;8.52;3.60;;;24.30;74.40;;;;;;5032406;28;20182;-64
2022/05/16 11:31:51;;;;;;;9.60;4.20;;;24.20;78.70;;;;;;5033327;28;20096;-63
2022/05/16 11:34:24;;;;;;;9.57;4.07;;;24.10;80.00;;;;;;5032909;28;20045;-65
2022/05/16 11:37:08;;;;;;;10.65;3.67;;;24.10;82.50;;;;;;5031580;28;20104;-64
2022/05/16 11:39:41;;;;;;;11.20;3.78;;;24.20;84.20;;;;;;5031850;28;20103;-64
2022/05/16 11:42:33;;;;;;;6.65;3.20;;;24.10;78.50;;;;;;5031707;28;20061;-65
2022/05/16 11:45:15;;;;;;;9.00;3.20;;;24.10;79.30;;;;;;5032682;28;20538;-64
2022/05/16 11:47:40;;;;;;;7.95;3.20;;;24.20;80.50;;;;;;5030864;28;20084;-65
2022/05/16 11:50:21;;;;;;;8.55;3.30;;;24.20;85.30;;;;;;5031572;28;20449;-64
2022/05/16 11:53:04;;;;;;;6.57;3.53;;;24.20;85.50;;;;;;5029947;28;20057;-64
2022/05/16 12:01:37;;;;;;;9.32;4.00;;;24.20;78.10;;;;;;5031447;28;20053;-66
2022/05/16 12:04:22;;;;;;;9.75;3.80;;;24.30;81.90;;;;;;5032062;28;20052;-64
2022/05/16 12:06:50;;;;;;;9.95;3.78;;;24.30;86.00;;;;;;5026003;28;20053;-65
2022/05/16 12:09:23;;;;;;;11.38;3.38;;;24.30;77.90;;;;;;5030989;28;20465;-64
2022/05/16 12:12:00;;;;;;;6.13;3.65;;;24.30;84.60;;;;;;5031034;28;20053;-65
2022/05/16 12:14:35;;;;;;;12.05;3.70;;;24.40;87.50;;;;;;5032252;28;20057;-66
2022/05/16 12:17:18;;;;;;;7.43;3.03;;;24.30;81.00;;;;;;5032737;28;20049;-63
2022/05/16 12:19:50;;;;;;;4.05;2.80;;;24.30;83.70;;;;;;5032973;28;20070;-64
2022/05/16 12:22:44;;;;;;;10.68;3.20;;;24.30;83.50;;;;;;5031892;28;20075;-64
2022/05/16 12:25:15;;;;;;;6.05;2.70;;;24.30;90.30;;;;;;5031470;28;20613;-65
2022/05/16 12:27:44;;;;;;;4.50;2.90;;;24.30;87.70;;;;;;5032486;28;20056;-66
2022/05/16 12:30:33;;;;;;;6.47;2.95;;;24.40;89.30;;;;;;5031693;28;20056;-65
2022/05/16 12:33:00;;;;;;;8.05;3.08;;;24.50;90.80;;;;;;5032675;28;20065;-66
2022/05/16 12:35:39;;;;;;;8.05;2.88;;;24.70;88.20;;;;;;5032811;28;20102;-64
2022/05/16 12:38:05;;;;;;;4.63;3.22;;;24.80;87.20;;;;;;5031796;28;20494;-64
2022/05/16 12:40:54;;;;;;;7.28;3.53;;;24.90;84.80;;;;;;5030913;28;20106;-64
2022/05/16 12:43:48;;;;;;;6.88;3.50;;;25.10;76.90;;;;;;5032882;28;20057;-64
2022/05/16 12:46:44;;;;;;;6.97;3.30;;;25.20;90.40;;;;;;5031163;28;20068;-65
2022/05/16 12:49:27;;;;;;;5.68;2.80;;;25.50;82.20;;;;;;5032700;28;20060;-63
2022/05/16 12:51:59;;;;;;;8.40;3.15;;;25.60;81.90;;;;;;5031616;28;20417;-63
2022/05/16 12:54:54;;;;;;;5.55;3.13;;;25.60;76.20;;;;;;5031370;28;20505;-64
2022/05/16 12:57:31;;;;;;;7.93;3.10;;;25.60;75.50;;;;;;5030539;28;20085;-64
2022/05/16 13:00:01;;;;;;;8.93;3.00;;;25.50;78.10;;;;;;5031140;28;20049;-65
2022/05/16 13:02:53;;;;;;;6.80;3.15;;;25.60;77.30;;;;;;5031151;28;20128;-65
2022/05/16 13:05:25;;;;;;;5.80;3.17;;;25.50;80.70;;;;;;5031598;28;20054;-65
2022/05/16 13:08:23;;;;;;;5.72;3.13;;;25.40;83.40;;;;;;5031676;28;20099;-64
2022/05/16 13:11:25;;;;;;;6.47;3.28;;;25.40;79.50;;;;;;5031126;28;20065;-63
2022/05/16 13:14:07;;;;;;;9.00;3.10;;;25.40;83.00;;;;;;5019525;28;20042;-64
2022/05/16 13:16:54;;;;;;;5.40;3.20;;;25.30;81.50;;;;;;5029119;28;20107;-64
2022/05/16 13:19:23;;;;;;;5.32;3.15;;;25.20;82.30;;;;;;5024638;28;20136;-63
2022/05/16 13:21:54;;;;;;;14.90;3.50;;;25.20;84.80;;;;;;5033081;28;20045;-63
2022/05/16 13:24:23;;;;;;;11.63;3.10;;;25.10;82.00;;;;;;5034863;28;20057;-64
2022/05/16 13:29:37;;;;;;;5.00;3.10;;;25.00;81.90;;;;;;5014850;28;20046;-63
2022/05/16 13:32:12;;;;;;;8.65;3.70;;;25.00;81.90;;;;;;5015580;28;20399;-64
2022/05/16 13:34:48;;;;;;;6.13;3.88;;;25.10;81.10;;;;;;5027814;28;20061;-64
2022/05/16 13:37:21;;;;;;;7.40;4.40;;;25.10;83.90;;;;;;5033972;28;20060;-64
2022/05/16 13:39:56;;;;;;;8.57;4.70;;;25.10;78.90;;;;;;5033882;28;20049;-64
2022/05/16 13:42:23;;;;;;;7.72;4.75;;;25.10;83.20;;;;;;5035567;28;20096;-63